Vicksburg, Pennsylvania
Current Conditions -  °F | °C
As of 1:53 PM on Friday 28 Nov 2014 (Local Time) from KSEG Reporting Station
Overcast Overcast  
Wind Chill: 26°   Ceiling: 4500
Heat Index: 32°   Visibility: 10mi
Dew Point: 16°   Wind: 7mph
Humidity: 52%   Direction: 290°WNW
Pressure: 30.22"   Gusts: NA
Location:  40.93°N, 76.98°W
Report Text: KSEG 281853Z AUTO 29006KT 10SM BKN045 OVC050 00/M09 A3022 RMK AO2 SLP239 T00001089
Loading
Personal Weather Stations






























Interactive Weather Map New forecast layout! Learn more

10-Day Weather Forecast

Advertisements
Track Severe Weather on mobile